Time;durP1;ratioP1;P1;durP2;ratioP2;P2;SDS_P1;SDS_P2;PMS_P1;PMS_P2;Temp;Humidity;BMP_temperature;BMP_pressure;BME280_temperature;BME280_humidity;BME280_pressure;Samples;Min_cycle;Max_cycle;Signal;HPM_P1;HPM_P2
2022/09/05 00:02:25;;;;;;;12.80;4.28;;;;;;;9.79;100.00;99851.50;2184702;79;21012;-56
2022/09/05 00:05:28;;;;;;;13.05;4.60;;;;;;;9.65;100.00;99846.83;2214077;79;21011;-55
2022/09/05 00:08:32;;;;;;;16.62;5.67;;;;;;;9.50;100.00;99847.00;2210173;80;21018;-56
2022/09/05 00:11:35;;;;;;;5.22;2.00;;;;;;;9.43;100.00;99852.56;2209658;79;21054;-55
2022/09/05 00:14:38;;;;;;;7.10;2.60;;;;;;;9.34;100.00;99849.38;2211239;79;20984;-56
2022/09/05 00:17:42;;;;;;;8.08;3.08;;;;;;;9.45;100.00;99848.09;2211221;80;21546;-55
2022/09/05 00:20:45;;;;;;;11.05;3.10;;;;;;;9.50;100.00;99847.47;2213961;79;21011;-55
2022/09/05 00:23:48;;;;;;;16.00;4.35;;;;;;;9.14;100.00;99848.02;2205073;79;20984;-56
2022/09/05 00:26:52;;;;;;;14.65;5.10;;;;;;;8.77;100.00;99841.55;2209341;79;21031;-55
2022/09/05 00:29:56;;;;;;;15.95;5.35;;;;;;;8.77;100.00;99840.25;2210485;80;21550;-55
2022/09/05 00:33:00;;;;;;;18.15;5.60;;;;;;;8.85;100.00;99838.20;2206060;80;21004;-56
2022/09/05 00:36:03;;;;;;;12.47;3.90;;;;;;;9.04;100.00;99834.86;2218792;79;21012;-55
2022/09/05 00:39:06;;;;;;;15.60;5.28;;;;;;;9.15;100.00;99844.46;2212018;80;20999;-54
2022/09/05 00:42:10;;;;;;;15.48;4.92;;;;;;;9.12;100.00;99835.42;2211598;79;21012;-54
2022/09/05 00:45:13;;;;;;;15.90;5.40;;;;;;;9.17;100.00;99833.49;2211652;79;21486;-55
2022/09/05 00:48:17;;;;;;;9.65;3.55;;;;;;;9.22;100.00;99837.23;2209965;79;21043;-54
2022/09/05 00:51:20;;;;;;;14.55;4.67;;;;;;;9.24;100.00;99834.08;2209988;79;21007;-54
2022/09/05 00:54:24;;;;;;;15.80;5.47;;;;;;;9.06;100.00;99836.52;2210662;79;21020;-54
2022/09/05 00:57:29;;;;;;;17.25;5.50;;;;;;;9.10;100.00;99833.34;2214793;79;21015;-54
2022/09/05 01:00:32;;;;;;;18.70;5.95;;;;;;;9.11;100.00;99834.58;2215521;78;21007;-55
2022/09/05 01:03:36;;;;;;;17.35;6.12;;;;;;;9.08;100.00;99833.83;2211234;79;21534;-55
2022/09/05 01:06:39;;;;;;;18.98;6.83;;;;;;;9.01;100.00;99834.08;2210915;80;20984;-55
2022/09/05 01:09:43;;;;;;;18.37;6.50;;;;;;;9.05;100.00;99849.66;2207439;79;21070;-54
2022/09/05 01:12:47;;;;;;;16.32;5.40;;;;;;;8.87;100.00;99850.76;2213636;79;21036;-54
2022/09/05 01:15:50;;;;;;;16.30;5.50;;;;;;;8.92;100.00;99845.34;2207525;79;21000;-55
2022/09/05 01:18:53;;;;;;;13.80;5.50;;;;;;;8.85;100.00;99843.44;2210737;79;21035;-55
2022/09/05 01:21:56;;;;;;;16.82;5.40;;;;;;;8.82;100.00;99840.91;2210870;79;21024;-56
2022/09/05 01:25:00;;;;;;;18.48;6.97;;;;;;;8.79;100.00;99840.59;2212177;80;21004;-55
2022/09/05 01:28:03;;;;;;;17.55;6.67;;;;;;;8.80;100.00;99845.36;2208735;80;21070;-55
2022/09/05 01:31:06;;;;;;;20.12;7.70;;;;;;;8.78;100.00;99843.27;2210944;79;21059;-55
2022/09/05 01:34:10;;;;;;;19.98;8.30;;;;;;;8.81;100.00;99848.38;2212003;79;21546;-55
2022/09/05 01:37:13;;;;;;;19.73;7.17;;;;;;;8.83;100.00;99847.86;2211930;79;21007;-55
2022/09/05 01:40:18;;;;;;;16.40;5.22;;;;;;;8.86;100.00;99849.05;2211584;79;21531;-55
2022/09/05 01:43:22;;;;;;;16.42;6.15;;;;;;;8.70;100.00;99848.77;2210552;79;21091;-55
2022/09/05 01:46:26;;;;;;;13.30;4.50;;;;;;;8.53;100.00;99855.08;2212701;79;21578;-55
2022/09/05 01:49:29;;;;;;;10.58;3.77;;;;;;;8.32;100.00;99852.30;2211258;79;20968;-55
2022/09/05 01:52:33;;;;;;;14.28;4.00;;;;;;;8.35;100.00;99857.41;2211251;80;21086;-55
2022/09/05 01:55:36;;;;;;;16.95;4.55;;;;;;;8.33;100.00;99847.45;2210483;80;21046;-56
2022/09/05 01:58:39;;;;;;;15.25;3.85;;;;;;;8.37;100.00;99849.05;2204460;79;21004;-56
2022/09/05 02:01:42;;;;;;;11.75;3.42;;;;;;;8.18;100.00;99848.01;2207885;80;20984;-55
2022/09/05 02:04:46;;;;;;;11.35;3.60;;;;;;;8.09;100.00;99851.33;2206498;80;21035;-55
2022/09/05 02:07:49;;;;;;;10.60;3.42;;;;;;;7.96;100.00;99848.75;2208595;79;21514;-55
2022/09/05 02:10:52;;;;;;;15.65;4.45;;;;;;;7.94;100.00;99853.15;2209570;79;20976;-56
2022/09/05 02:13:56;;;;;;;11.40;3.10;;;;;;;8.05;100.00;99841.05;2200572;79;21094;-55
2022/09/05 02:16:59;;;;;;;22.65;4.05;;;;;;;8.17;100.00;99851.05;2209128;79;21008;-56
2022/09/05 02:20:02;;;;;;;23.47;3.60;;;;;;;8.19;100.00;99848.38;2209683;79;21479;-55
2022/09/05 02:23:06;;;;;;;10.85;4.08;;;;;;;8.09;100.00;99847.87;2208504;80;21035;-55
2022/09/05 02:26:09;;;;;;;15.05;4.55;;;;;;;8.12;100.00;99851.69;2210713;79;21015;-55
2022/09/05 02:29:12;;;;;;;18.05;6.25;;;;;;;8.18;100.00;99849.31;2209149;80;21000;-56
2022/09/05 02:32:16;;;;;;;11.63;4.10;;;;;;;8.16;100.00;99850.68;2210289;80;21517;-55
2022/09/05 02:35:19;;;;;;;2.80;1.67;;;;;;;8.16;100.00;99854.59;2210268;80;21046;-55
2022/09/05 02:38:23;;;;;;;11.20;4.45;;;;;;;8.23;100.00;99852.60;2209211;80;21067;-55
2022/09/05 02:41:26;;;;;;;16.27;5.67;;;;;;;8.23;100.00;99854.78;2211231;79;21015;-55
2022/09/05 02:44:29;;;;;;;14.80;4.83;;;;;;;8.09;100.00;99858.33;2203167;79;20992;-55
2022/09/05 02:47:33;;;;;;;16.62;5.50;;;;;;;8.13;100.00;99855.98;2209228;79;21041;-55
2022/09/05 02:50:36;;;;;;;16.10;5.58;;;;;;;8.13;100.00;99860.78;2207562;80;21530;-56
2022/09/05 02:53:39;;;;;;;19.05;6.62;;;;;;;8.21;100.00;99858.35;2212136;79;21016;-55
2022/09/05 02:56:43;;;;;;;19.00;6.67;;;;;;;8.17;100.00;99856.75;2209963;79;21063;-55
2022/09/05 02:59:46;;;;;;;19.57;6.67;;;;;;;8.08;100.00;99852.69;2209090;80;21554;-55
2022/09/05 03:02:49;;;;;;;18.42;6.50;;;;;;;8.03;100.00;99860.70;2210469;79;21038;-55
2022/09/05 03:05:53;;;;;;;16.75;5.80;;;;;;;7.94;100.00;99860.98;2209269;79;21035;-54
2022/09/05 03:08:57;;;;;;;12.13;4.10;;;;;;;7.93;100.00;99861.89;2210449;80;20980;-55
2022/09/05 03:12:00;;;;;;;11.83;3.60;;;;;;;7.88;100.00;99858.59;2208902;79;21015;-55
2022/09/05 03:15:03;;;;;;;11.57;4.25;;;;;;;7.65;100.00;99854.97;2209324;79;20976;-54
2022/09/05 03:18:07;;;;;;;15.40;3.87;;;;;;;7.56;100.00;99863.95;2212912;79;21019;-55
2022/09/05 03:21:12;;;;;;;12.82;3.95;;;;;;;7.71;100.00;99854.77;2213316;79;21014;-55
2022/09/05 03:24:15;;;;;;;12.85;3.90;;;;;;;7.59;100.00;99865.16;2207691;80;21043;-54
2022/09/05 03:27:18;;;;;;;10.03;3.40;;;;;;;7.53;100.00;99865.37;2211092;79;21047;-54
2022/09/05 03:30:21;;;;;;;16.30;5.25;;;;;;;7.53;100.00;99867.10;2210841;79;21479;-56
2022/09/05 03:33:25;;;;;;;15.15;5.05;;;;;;;7.45;100.00;99860.83;2211838;79;21012;-57
2022/09/05 03:36:28;;;;;;;13.72;4.70;;;;;;;7.51;100.00;99865.01;2201348;79;21049;-57
2022/09/05 03:39:31;;;;;;;15.75;5.40;;;;;;;7.55;100.00;99858.33;2211146;79;21012;-57
2022/09/05 03:42:35;;;;;;;19.15;6.30;;;;;;;7.76;100.00;99852.87;2213213;79;21064;-57
2022/09/05 03:45:38;;;;;;;19.20;6.55;;;;;;;7.74;100.00;99863.83;2211504;79;21038;-57
2022/09/05 03:48:41;;;;;;;19.40;7.03;;;;;;;7.68;100.00;99865.31;2203869;79;20976;-57
2022/09/05 03:51:45;;;;;;;17.55;6.10;;;;;;;7.68;100.00;99868.39;2210725;79;21023;-57
2022/09/05 03:54:48;;;;;;;13.15;4.50;;;;;;;7.63;100.00;99871.16;2210664;78;21011;-57
2022/09/05 03:57:51;;;;;;;15.90;4.70;;;;;;;7.63;100.00;99871.16;2209661;79;21506;-57
2022/09/05 04:00:55;;;;;;;14.45;4.95;;;;;;;7.72;100.00;99879.14;2211821;79;21007;-57
2022/09/05 04:03:58;;;;;;;13.28;4.70;;;;;;;7.73;100.00;99880.83;2211490;79;21015;-57
2022/09/05 04:07:02;;;;;;;16.70;5.47;;;;;;;7.58;100.00;99881.72;2212809;79;21008;-57
2022/09/05 04:10:06;;;;;;;20.35;6.95;;;;;;;7.58;100.00;99886.10;2211121;79;21552;-57
2022/09/05 04:13:09;;;;;;;20.40;7.25;;;;;;;7.56;100.00;99884.84;2211755;80;21040;-57
2022/09/05 04:16:13;;;;;;;18.67;6.65;;;;;;;7.54;100.00;99885.80;2202342;80;21149;-57
2022/09/05 04:19:16;;;;;;;19.17;6.90;;;;;;;7.62;100.00;99885.95;2212297;79;20968;-57
2022/09/05 04:22:19;;;;;;;19.62;7.12;;;;;;;7.71;100.00;99892.63;2211685;79;21023;-57
2022/09/05 04:25:22;;;;;;;19.40;6.47;;;;;;;7.73;100.00;99889.97;2211190;80;21008;-55
2022/09/05 04:28:26;;;;;;;19.70;7.33;;;;;;;7.81;100.00;99897.11;2202608;79;21557;-55
2022/09/05 04:31:29;;;;;;;19.52;7.37;;;;;;;7.92;100.00;99897.62;2210444;79;21031;-55
2022/09/05 04:34:32;;;;;;;20.05;7.28;;;;;;;8.03;100.00;99902.94;2211282;79;21011;-55
2022/09/05 04:37:36;;;;;;;20.62;7.80;;;;;;;8.12;100.00;99903.48;2212335;79;21064;-55
2022/09/05 04:40:39;;;;;;;20.43;7.20;;;;;;;8.12;100.00;99905.26;2210938;79;21439;-56
2022/09/05 04:43:42;;;;;;;19.37;6.90;;;;;;;8.26;100.00;99906.95;2214041;79;21006;-55
2022/09/05 04:46:46;;;;;;;18.77;6.50;;;;;;;8.32;100.00;99913.73;2211137;79;21051;-56
2022/09/05 04:49:49;;;;;;;10.20;3.98;;;;;;;8.48;100.00;99912.77;2213285;79;21007;-55
2022/09/05 04:52:52;;;;;;;16.02;5.30;;;;;;;8.58;100.00;99915.92;2211247;80;21574;-56
2022/09/05 04:55:56;;;;;;;11.40;4.17;;;;;;;8.82;100.00;99916.78;2210668;79;20992;-55
2022/09/05 04:59:01;;;;;;;12.25;4.03;;;;;;;8.92;100.00;99918.17;2210818;79;20972;-55
2022/09/05 05:02:04;;;;;;;12.15;4.10;;;;;;;9.03;100.00;99923.46;2211948;79;21020;-55
2022/09/05 05:05:07;;;;;;;15.80;5.37;;;;;;;9.11;100.00;99934.05;2207776;79;21075;-58
2022/09/05 05:08:10;;;;;;;18.00;5.55;;;;;;;9.28;100.00;99930.80;2211071;79;21027;-58
2022/09/05 05:11:14;;;;;;;12.68;4.55;;;;;;;9.56;100.00;99940.66;2209547;79;21051;-55
2022/09/05 05:14:17;;;;;;;20.20;7.17;;;;;;;9.77;100.00;99936.32;2202557;80;20999;-55
2022/09/05 05:17:20;;;;;;;17.62;6.42;;;;;;;9.94;100.00;99932.59;2198220;80;21002;-55
2022/09/05 05:20:23;;;;;;;17.62;6.22;;;;;;;10.19;100.00;99933.72;2200629;80;21044;-55
2022/09/05 05:23:27;;;;;;;17.92;6.97;;;;;;;10.56;100.00;99936.13;2197285;79;21530;-56
2022/09/05 05:26:30;;;;;;;19.40;6.97;;;;;;;10.94;100.00;99938.45;2214534;79;20977;-55
2022/09/05 05:29:33;;;;;;;22.30;7.75;;;;;;;11.19;100.00;99939.48;2204732;80;21026;-55
2022/09/05 05:32:37;;;;;;;20.12;7.22;;;;;;;11.52;100.00;99938.41;2210768;79;21039;-55
2022/09/05 05:35:40;;;;;;;19.87;7.25;;;;;;;11.79;100.00;99938.86;2210276;79;21530;-55
2022/09/05 05:38:43;;;;;;;19.92;6.62;;;;;;;12.08;100.00;99937.94;2211040;79;21006;-54
2022/09/05 05:41:47;;;;;;;19.30;6.90;;;;;;;12.28;100.00;99940.02;2209723;79;21019;-54
2022/09/05 05:44:51;;;;;;;21.68;6.37;;;;;;;12.50;100.00;99950.31;2209160;80;21133;-56
2022/09/05 05:47:54;;;;;;;20.68;6.20;;;;;;;12.65;100.00;99948.67;2209065;79;20968;-55
2022/09/05 05:50:59;;;;;;;18.23;5.87;;;;;;;12.78;100.00;99952.36;2211554;79;21019;-56
2022/09/05 05:54:02;;;;;;;17.40;5.40;;;;;;;13.09;100.00;99953.38;2211559;79;21479;-55
2022/09/05 05:57:05;;;;;;;17.65;5.35;;;;;;;13.24;100.00;99964.87;2215943;79;21088;-56
2022/09/05 06:00:09;;;;;;;16.75;5.00;;;;;;;13.32;100.00;99959.20;2210700;80;21000;-56
2022/09/05 06:03:12;;;;;;;17.92;5.10;;;;;;;13.56;100.00;99966.72;2210700;80;21043;-56
2022/09/05 06:06:15;;;;;;;18.48;5.65;;;;;;;13.81;100.00;99956.98;2211088;79;21049;-56
2022/09/05 06:09:20;;;;;;;15.48;4.95;;;;;;;14.14;100.00;99959.47;2203671;79;21073;-58
2022/09/05 06:12:23;;;;;;;14.18;4.60;;;;;;;14.44;100.00;99963.04;2212748;79;21086;-58
2022/09/05 06:15:26;;;;;;;19.15;4.95;;;;;;;14.61;100.00;99964.23;2211211;80;20984;-58
2022/09/05 06:18:30;;;;;;;15.72;4.65;;;;;;;14.85;100.00;99957.95;2211866;79;21028;-57
2022/09/05 06:21:33;;;;;;;18.55;5.33;;;;;;;15.00;100.00;99960.14;2211575;80;21535;-58
2022/09/05 06:24:36;;;;;;;17.73;5.10;;;;;;;15.25;100.00;99956.81;2201191;80;20996;-59
2022/09/05 06:27:40;;;;;;;19.60;5.22;;;;;;;15.54;100.00;99957.25;2212648;79;21098;-58
2022/09/05 06:30:43;;;;;;;17.45;4.80;;;;;;;15.57;100.00;99953.09;2210362;78;21936;-57
2022/09/05 06:33:47;;;;;;;16.87;4.40;;;;;;;15.71;100.00;99954.38;2209812;79;21031;-58
2022/09/05 06:36:51;;;;;;;16.50;4.53;;;;;;;15.88;100.00;99956.45;2212298;79;21083;-58
2022/09/05 06:39:54;;;;;;;15.88;4.33;;;;;;;15.96;100.00;99962.09;2206899;79;21008;-58
2022/09/05 06:42:57;;;;;;;17.80;4.50;;;;;;;16.00;100.00;99958.76;2210526;79;21506;-57
2022/09/05 06:46:00;;;;;;;15.55;4.25;;;;;;;16.10;100.00;99965.13;2211353;79;21103;-57
2022/09/05 06:49:04;;;;;;;13.68;4.30;;;;;;;16.49;100.00;99961.26;2210007;79;21016;-57
2022/09/05 06:52:07;;;;;;;19.10;4.37;;;;;;;16.75;100.00;99966.96;2210843;78;21015;-57
2022/09/05 06:55:10;;;;;;;15.45;4.30;;;;;;;16.96;100.00;99971.75;2209819;79;21604;-57
2022/09/05 06:58:14;;;;;;;14.80;4.40;;;;;;;17.20;100.00;99973.66;2209128;79;21051;-57
2022/09/05 07:01:17;;;;;;;14.43;3.85;;;;;;;17.41;100.00;99973.47;2212125;79;21063;-57
2022/09/05 07:04:20;;;;;;;12.88;4.00;;;;;;;17.46;100.00;99977.94;2210499;79;21016;-57
2022/09/05 07:07:25;;;;;;;12.75;3.80;;;;;;;17.58;100.00;99976.70;2210365;78;21559;-58
2022/09/05 07:10:28;;;;;;;14.68;4.00;;;;;;;17.96;100.00;99983.23;2210623;79;21011;-57
2022/09/05 07:13:32;;;;;;;15.30;4.15;;;;;;;18.05;100.00;99964.94;2211864;79;21007;-57
2022/09/05 07:16:36;;;;;;;12.05;3.90;;;;;;;18.41;100.00;99987.05;2207710;79;21503;-59
2022/09/05 07:19:40;;;;;;;12.25;3.83;;;;;;;18.40;100.00;99986.18;2213680;79;20980;-57
2022/09/05 07:22:44;;;;;;;15.78;4.33;;;;;;;18.38;100.00;99983.30;2210390;79;21085;-57
2022/09/05 07:25:48;;;;;;;14.78;4.05;;;;;;;18.22;100.00;99976.47;2203165;80;21735;-57
2022/09/05 07:28:51;;;;;;;13.50;3.90;;;;;;;18.27;100.00;99990.23;2211126;79;21016;-57
2022/09/05 07:31:54;;;;;;;15.03;4.45;;;;;;;18.45;100.00;99990.67;2212156;80;21039;-57
2022/09/05 07:34:58;;;;;;;12.23;3.92;;;;;;;18.84;100.00;99973.97;2208289;79;20980;-57
2022/09/05 07:38:01;;;;;;;14.07;3.85;;;;;;;18.84;100.00;99973.97;2202005;79;21003;-57
2022/09/05 07:41:05;;;;;;;15.98;3.80;;;;;;;18.91;100.00;99967.73;2210817;79;21507;-59
2022/09/05 07:44:08;;;;;;;14.10;3.80;;;;;;;19.04;100.00;99977.77;2210030;80;21019;-59
2022/09/05 07:47:11;;;;;;;14.68;4.50;;;;;;;19.34;100.00;99980.81;2210481;80;20988;-57
2022/09/05 07:50:14;;;;;;;14.28;3.92;;;;;;;19.64;100.00;99974.84;2213178;78;21012;-56
2022/09/05 07:53:18;;;;;;;13.00;4.12;;;;;;;19.61;100.00;99984.41;2215286;79;21035;-57
2022/09/05 07:56:21;;;;;;;14.63;3.62;;;;;;;19.62;100.00;99978.09;2209271;79;21071;-58
2022/09/05 07:59:25;;;;;;;11.18;3.70;;;;;;;19.91;100.00;99982.90;2210506;79;21499;-57
2022/09/05 08:02:28;;;;;;;12.68;3.92;;;;;;;19.96;99.45;99981.22;2203725;80;20998;-57
2022/09/05 08:05:32;;;;;;;14.07;3.87;;;;;;;20.09;100.00;99981.89;2212001;80;21084;-57
2022/09/05 08:08:35;;;;;;;14.93;3.75;;;;;;;20.41;100.00;99979.22;2211507;79;21503;-57
2022/09/05 08:11:39;;;;;;;12.63;3.58;;;;;;;20.58;100.00;99980.94;2202036;80;21003;-57
2022/09/05 08:14:43;;;;;;;12.10;3.50;;;;;;;20.77;94.81;99972.23;2204973;80;21004;-58
2022/09/05 08:17:46;;;;;;;18.87;3.58;;;;;;;20.88;100.00;99973.50;2212936;79;21020;-58
2022/09/05 08:20:50;;;;;;;13.03;3.42;;;;;;;20.97;94.30;99976.36;2210799;79;21529;-58
2022/09/05 08:23:53;;;;;;;14.98;3.50;;;;;;;20.82;95.12;99972.70;2212482;80;21007;-58
2022/09/05 08:26:57;;;;;;;10.88;3.35;;;;;;;20.97;97.75;99982.52;2208023;79;21008;-59
2022/09/05 08:30:00;;;;;;;11.33;3.50;;;;;;;21.22;92.41;99985.25;2209812;79;21518;-57
2022/09/05 08:33:03;;;;;;;12.53;3.20;;;;;;;21.48;96.90;99979.92;2212054;79;21007;-58
2022/09/05 08:36:07;;;;;;;14.58;3.20;;;;;;;21.85;96.38;99980.20;2212165;79;21035;-58
2022/09/05 08:39:10;;;;;;;10.28;3.35;;;;;;;22.10;91.27;99982.81;2210937;79;20995;-57
2022/09/05 08:42:13;;;;;;;12.93;3.25;;;;;;;22.07;91.39;99976.42;2210220;79;21495;-58
2022/09/05 08:45:17;;;;;;;12.25;3.62;;;;;;;22.24;90.08;99966.00;2206771;80;21110;-57
2022/09/05 08:48:20;;;;;;;15.70;3.35;;;;;;;22.52;90.99;99971.52;2205449;80;20976;-58
2022/09/05 08:51:23;;;;;;;10.75;3.25;;;;;;;22.84;85.23;99966.66;2210005;79;21027;-57
2022/09/05 08:54:27;;;;;;;10.20;3.20;;;;;;;22.99;84.93;99971.04;2208374;79;21425;-57
2022/09/05 08:57:30;;;;;;;10.00;3.22;;;;;;;23.17;85.23;99968.48;2209962;79;20972;-55
2022/09/05 09:00:34;;;;;;;10.00;3.30;;;;;;;23.27;83.23;99963.57;2211826;79;21007;-57
2022/09/05 09:03:38;;;;;;;9.25;3.10;;;;;;;23.40;70.64;99956.53;2212975;79;21519;-57
2022/09/05 09:06:41;;;;;;;11.85;3.30;;;;;;;23.25;79.47;99958.88;2207162;80;21044;-57
2022/09/05 09:09:44;;;;;;;7.42;2.90;;;;;;;23.16;75.70;99954.75;2210249;79;21046;-57
2022/09/05 09:12:47;;;;;;;11.22;3.10;;;;;;;23.11;79.88;99950.83;2212704;79;21054;-57
2022/09/05 09:15:51;;;;;;;10.78;3.08;;;;;;;23.53;79.93;99949.84;2204972;80;21570;-58
2022/09/05 09:18:54;;;;;;;10.25;2.90;;;;;;;23.71;69.29;99947.69;2209977;79;20981;-57
2022/09/05 09:21:57;;;;;;;12.30;3.40;;;;;;;23.88;77.63;99944.71;2209566;80;21041;-57
2022/09/05 09:25:00;;;;;;;9.10;3.17;;;;;;;24.31;75.60;99942.22;2211894;79;21030;-57
2022/09/05 09:28:04;;;;;;;11.63;3.72;;;;;;;24.48;71.86;99944.05;2212534;80;21507;-57
2022/09/05 09:31:07;;;;;;;10.48;3.25;;;;;;;24.67;68.31;99932.30;2209212;80;21019;-57
2022/09/05 09:34:10;;;;;;;17.62;3.80;;;;;;;24.74;68.77;99931.18;2199218;79;21005;-57
2022/09/05 09:37:14;;;;;;;15.98;3.90;;;;;;;24.73;65.32;99932.17;2209156;79;21023;-59
2022/09/05 09:40:17;;;;;;;14.75;3.37;;;;;;;24.57;60.15;99931.54;2210768;79;20989;-58
2022/09/05 09:46:26;;;;;;;13.08;3.58;;;;;;;24.37;60.52;99916.98;2176758;80;21046;-59
2022/09/05 09:49:30;;;;;;;10.50;3.10;;;;;;;24.59;68.21;99917.97;2205977;79;20980;-57
2022/09/05 09:52:33;;;;;;;11.45;3.27;;;;;;;24.85;57.16;99916.63;2209725;79;21502;-59
2022/09/05 09:55:39;;;;;;;14.87;3.35;;;;;;;24.10;57.08;99923.30;2215006;79;21023;-59
2022/09/05 09:58:41;;;;;;;12.40;3.60;;;;;;;23.71;61.54;99926.26;2184060;79;21070;-59
2022/09/05 10:01:52;;;;;;;13.98;3.33;;;;;;;23.34;60.91;99924.00;2213970;79;21003;-60
2022/09/05 10:04:50;;;;;;;14.95;3.70;;;;;;;23.00;61.82;99921.05;2176573;80;21038;-59
2022/09/05 10:07:54;;;;;;;10.43;3.05;;;;;;;22.80;63.19;99921.61;2204524;79;21006;-59
2022/09/05 10:10:57;;;;;;;12.20;3.90;;;;;;;22.57;62.94;99915.77;2206811;79;21664;-59
2022/09/05 10:14:00;;;;;;;10.30;3.10;;;;;;;22.93;64.91;99914.12;2200942;79;21000;-58
2022/09/05 10:17:04;;;;;;;10.95;3.10;;;;;;;23.88;64.88;99907.20;2208522;80;21011;-59
2022/09/05 10:20:07;;;;;;;10.82;3.33;;;;;;;24.70;62.42;99910.52;2212974;79;21062;-59
2022/09/05 10:23:10;;;;;;;7.90;3.08;;;;;;;25.47;60.42;99906.17;2207653;80;21533;-58
2022/09/05 10:26:14;;;;;;;8.73;2.90;;;;;;;25.40;49.58;99909.52;2210401;79;20999;-59
2022/09/05 10:29:17;;;;;;;12.33;3.20;;;;;;;24.93;54.76;99906.47;2210248;79;21003;-58
2022/09/05 10:32:20;;;;;;;9.38;3.40;;;;;;;25.04;57.18;99904.33;2209020;79;21525;-59
2022/09/05 10:35:24;;;;;;;7.70;3.00;;;;;;;25.31;50.51;99910.96;2213074;79;21122;-59
2022/09/05 10:38:27;;;;;;;11.78;3.15;;;;;;;25.69;52.58;99908.24;2201862;80;21022;-58
2022/09/05 10:41:31;;;;;;;10.10;3.33;;;;;;;25.95;52.47;99899.20;2211224;79;21691;-59
2022/09/05 10:44:39;;;;;;;11.08;3.30;;;;;;;26.15;52.33;99901.08;2211120;79;21016;-58
2022/09/05 10:47:40;;;;;;;10.28;3.17;;;;;;;26.50;51.52;99899.02;2186128;78;21003;-58
2022/09/05 10:50:43;;;;;;;10.68;3.12;;;;;;;26.32;47.21;99901.91;2207405;79;20976;-59
2022/09/05 10:53:47;;;;;;;10.75;3.20;;;;;;;25.78;47.79;99905.06;2204397;79;21074;-59
2022/09/05 10:56:50;;;;;;;11.55;3.40;;;;;;;25.67;48.81;99895.97;2208155;79;20990;-59
2022/09/05 10:59:55;;;;;;;9.03;3.15;;;;;;;25.84;51.54;99900.36;2206486;80;21015;-58
2022/09/05 11:02:59;;;;;;;7.55;2.90;;;;;;;26.36;52.22;99897.02;2210723;79;21086;-58
2022/09/05 11:06:04;;;;;;;9.43;3.30;;;;;;;26.42;47.74;99903.05;2211022;79;21066;-59
2022/09/05 11:09:08;;;;;;;10.72;3.02;;;;;;;26.52;48.97;99891.63;2210379;78;21015;-59
2022/09/05 11:12:12;;;;;;;12.65;3.20;;;;;;;26.36;43.27;99887.61;2208153;79;21042;-58
2022/09/05 11:15:15;;;;;;;12.73;3.47;;;;;;;25.86;47.13;99884.06;2205049;80;21546;-58
2022/09/05 11:18:18;;;;;;;13.90;3.47;;;;;;;25.20;48.23;99884.77;2208995;79;20963;-58
2022/09/05 11:21:22;;;;;;;10.63;3.22;;;;;;;25.01;44.93;99887.22;2210399;79;21011;-59
2022/09/05 11:24:25;;;;;;;12.20;3.37;;;;;;;24.53;43.81;99884.58;2215327;79;21039;-58
2022/09/05 11:27:29;;;;;;;10.38;3.25;;;;;;;24.64;47.87;99880.80;2209104;80;21503;-57
2022/09/05 11:30:32;;;;;;;8.93;3.00;;;;;;;25.17;46.16;99885.57;2201229;79;21007;-59
2022/09/05 11:33:36;;;;;;;12.68;3.30;;;;;;;25.44;49.21;99888.53;2214043;79;21035;-59
2022/09/05 11:36:39;;;;;;;9.65;3.42;;;;;;;26.05;49.16;99882.43;2210133;79;21774;-59
2022/09/05 11:39:42;;;;;;;10.20;3.10;;;;;;;26.57;47.47;99882.52;2210571;79;21011;-59
2022/09/05 11:42:46;;;;;;;9.88;3.00;;;;;;;26.90;46.73;99867.66;2212136;79;21003;-59
2022/09/05 11:45:49;;;;;;;12.82;3.35;;;;;;;27.03;45.63;99877.03;2207739;79;21024;-59
2022/09/05 11:48:52;;;;;;;12.55;3.02;;;;;;;27.18;46.02;99866.34;2209634;80;22090;-59
2022/09/05 11:51:56;;;;;;;15.43;3.27;;;;;;;27.21;43.28;99868.20;2210364;79;21297;-59
2022/09/05 11:54:59;;;;;;;12.30;3.30;;;;;;;27.10;45.04;99866.72;2211508;78;21031;-59
2022/09/05 11:58:02;;;;;;;10.80;3.17;;;;;;;26.92;41.24;99863.44;2212022;79;21171;-59
2022/09/05 12:01:06;;;;;;;8.80;2.85;;;;;;;26.50;45.69;99865.39;2205015;80;20999;-59
2022/09/05 12:04:09;;;;;;;13.28;3.05;;;;;;;26.60;41.86;99866.55;2209584;80;21549;-59
2022/09/05 12:07:12;;;;;;;10.90;3.00;;;;;;;26.04;45.22;99869.99;2214298;79;21078;-58
2022/09/05 12:10:16;;;;;;;12.13;3.40;;;;;;;25.37;42.80;99860.66;2210300;79;21043;-59
2022/09/05 12:13:19;;;;;;;11.22;3.25;;;;;;;25.07;44.51;99865.09;2210327;80;21103;-59
2022/09/05 12:16:23;;;;;;;14.68;3.15;;;;;;;24.92;44.58;99861.33;2212502;79;21016;-59
2022/09/05 12:19:27;;;;;;;8.00;2.92;;;;;;;25.22;48.39;99861.27;2210254;79;21004;-60
2022/09/05 12:22:30;;;;;;;10.75;3.00;;;;;;;25.40;46.35;99856.30;2211113;80;21003;-59
2022/09/05 12:25:35;;;;;;;11.38;3.30;;;;;;;24.87;43.73;99856.97;2212170;79;21653;-59
2022/09/05 12:28:38;;;;;;;11.63;2.95;;;;;;;24.86;46.41;99857.45;2209727;79;20981;-58
2022/09/05 12:31:43;;;;;;;11.48;3.30;;;;;;;25.17;47.42;99850.20;2212911;79;21529;-58
2022/09/05 12:37:52;;;;;;;14.13;3.20;;;;;;;25.45;45.11;99853.14;2183766;80;21016;-59
2022/09/05 12:40:55;;;;;;;8.85;2.90;;;;;;;24.90;45.68;99853.45;2209711;79;21067;-59
2022/09/05 12:44:00;;;;;;;12.58;3.42;;;;;;;24.30;45.82;99852.93;2209180;79;21002;-57
2022/09/05 12:47:05;;;;;;;10.00;3.00;;;;;;;24.29;46.48;99848.55;2183598;80;21518;-57
2022/09/05 12:50:08;;;;;;;10.70;2.87;;;;;;;23.97;47.11;99850.01;2214476;79;21019;-57
2022/09/05 12:53:12;;;;;;;9.63;2.87;;;;;;;23.50;45.93;99849.75;2209473;79;22539;-58
2022/09/05 12:56:15;;;;;;;12.58;3.15;;;;;;;23.24;48.37;99849.63;2211482;79;21000;-57
2022/09/05 12:59:18;;;;;;;14.07;2.80;;;;;;;23.58;48.62;99840.12;2209817;79;21004;-57
2022/09/05 13:02:22;;;;;;;9.85;3.00;;;;;;;23.30;47.63;99845.03;2210517;79;21063;-58
2022/09/05 13:05:26;;;;;;;9.15;3.33;;;;;;;23.55;51.34;99844.41;2207359;79;21040;-58
2022/09/05 13:08:29;;;;;;;12.05;3.27;;;;;;;24.31;51.45;99838.53;2209960;79;21090;-58
2022/09/05 13:11:34;;;;;;;10.90;3.10;;;;;;;24.74;46.25;99837.30;2212226;79;21011;-58
2022/09/05 13:14:39;;;;;;;12.98;3.12;;;;;;;25.12;47.88;99842.30;2207993;79;21015;-58
2022/09/05 13:17:42;;;;;;;14.23;3.20;;;;;;;25.17;45.32;99839.94;2210577;79;21514;-58
2022/09/05 13:23:51;;;;;;;10.88;2.92;;;;;;;24.52;45.70;99833.28;2188485;79;21008;-56
2022/09/05 13:26:55;;;;;;;9.18;2.87;;;;;;;24.66;49.24;99835.91;2210748;79;20984;-57
2022/09/05 13:29:58;;;;;;;9.90;3.10;;;;;;;25.08;44.89;99824.32;2211143;79;21047;-59
2022/09/05 13:33:03;;;;;;;10.00;3.22;;;;;;;25.24;45.83;99824.86;2211650;80;21063;-59
2022/09/05 13:36:07;;;;;;;13.18;3.20;;;;;;;25.32;45.08;99830.28;2210942;79;21020;-59
2022/09/05 13:39:10;;;;;;;9.13;2.75;;;;;;;25.67;47.80;99816.22;2200922;79;21533;-59
2022/09/05 13:42:17;;;;;;;12.05;3.58;;;;;;;26.00;44.48;99820.27;2209480;79;21035;-59
2022/09/05 13:45:19;;;;;;;9.33;2.42;;;;;;;26.06;46.31;99812.03;2184737;79;21525;-59
2022/09/05 13:48:26;;;;;;;8.90;2.67;;;;;;;26.12;42.46;99811.37;2212878;79;21071;-59
2022/09/05 13:51:27;;;;;;;9.60;3.10;;;;;;;26.03;42.36;99815.06;2184760;79;21000;-59
2022/09/05 13:54:32;;;;;;;9.68;2.52;;;;;;;25.79;41.84;99808.69;2212729;79;20972;-60
2022/09/05 13:57:36;;;;;;;7.08;2.70;;;;;;;25.67;44.65;99808.67;2212443;79;21020;-59
2022/09/05 14:00:39;;;;;;;8.80;2.55;;;;;;;25.89;43.29;99812.03;2210281;79;21004;-59
2022/09/05 14:03:43;;;;;;;9.93;2.83;;;;;;;25.61;43.36;99812.03;2212424;79;20977;-59
2022/09/05 14:06:47;;;;;;;11.18;2.85;;;;;;;25.34;44.09;99818.03;2212881;79;21521;-58
2022/09/05 14:09:50;;;;;;;10.18;2.98;;;;;;;25.24;42.76;99819.01;2207956;78;21043;-59
2022/09/05 14:12:54;;;;;;;10.85;2.70;;;;;;;24.98;44.38;99819.59;2209064;78;21031;-59
2022/09/05 14:15:57;;;;;;;8.45;2.50;;;;;;;24.88;43.36;99819.72;2206342;79;21715;-58
2022/09/05 14:22:05;;;;;;;12.00;3.00;;;;;;;24.24;43.37;99820.06;2184812;80;21098;-59
2022/09/05 14:25:09;;;;;;;9.00;3.02;;;;;;;24.37;44.75;99818.30;2208968;79;21098;-59